createdAt,value
2019-02-21T00:02:55.358Z,59.36
2019-02-21T00:07:59.552Z,59.84
2019-02-21T00:13:03.963Z,60.41
2019-02-21T00:18:08.266Z,60.85
2019-02-21T00:23:12.224Z,61.24
2019-02-21T00:28:16.116Z,61.52
2019-02-21T00:33:20.084Z,61.47
2019-02-21T00:38:24.304Z,61.46
2019-02-21T00:43:28.250Z,61.55
2019-02-21T00:48:32.256Z,61.43
2019-02-21T00:53:36.081Z,61.33
2019-02-21T00:58:40.472Z,61.37
2019-02-21T01:03:46.105Z,61.66
2019-02-21T01:08:50.244Z,61.99
2019-02-21T01:13:54.152Z,62.26
2019-02-21T01:18:58.050Z,62.67
2019-02-21T01:24:04.739Z,62.87
2019-02-21T01:29:07.758Z,63.27
2019-02-21T01:34:11.626Z,63.73
2019-02-21T01:39:15.598Z,64.20
2019-02-21T01:44:19.532Z,64.52
2019-02-21T01:49:23.549Z,64.80
2019-02-21T01:54:27.551Z,64.83
2019-02-21T01:59:31.510Z,64.76
2019-02-21T02:04:35.388Z,64.66
2019-02-21T02:09:39.282Z,64.92
2019-02-21T02:14:43.298Z,65.09
2019-02-21T02:19:47.296Z,65.07
2019-02-21T02:24:51.219Z,65.06
2019-02-21T02:29:58.270Z,65.12
2019-02-21T02:35:02.186Z,65.10
2019-02-21T02:40:06.423Z,65.09
2019-02-21T02:45:10.337Z,65.23
2019-02-21T02:50:14.128Z,65.12
2019-02-21T02:55:18.233Z,65.21
2019-02-21T03:00:22.123Z,64.96
2019-02-21T03:05:26.270Z,64.87
2019-02-21T03:10:33.284Z,64.96
2019-02-21T03:15:37.169Z,64.99
2019-02-21T03:20:43.847Z,64.97
2019-02-21T03:25:47.839Z,64.95
2019-02-21T03:30:51.727Z,64.81
2019-02-21T03:35:55.799Z,64.97
2019-02-21T03:40:59.821Z,65.11
2019-02-21T03:46:03.724Z,65.25
2019-02-21T03:51:07.751Z,65.34
2019-02-21T03:56:11.554Z,65.13
2019-02-21T04:01:15.538Z,65.04
2019-02-21T04:06:19.470Z,64.92
2019-02-21T04:11:23.384Z,64.81
2019-02-21T04:16:27.467Z,64.84
2019-02-21T04:21:31.356Z,64.77
2019-02-21T04:26:35.183Z,64.85
2019-02-21T04:31:39.134Z,64.90
2019-02-21T04:36:42.962Z,64.85
2019-02-21T04:41:46.870Z,64.73
2019-02-21T04:46:50.766Z,64.89
2019-02-21T04:51:54.659Z,64.99
2019-02-21T04:57:00.192Z,65.11
2019-02-21T05:02:04.082Z,64.97
2019-02-21T05:07:07.958Z,65.21
2019-02-21T05:12:12.016Z,65.45
2019-02-21T05:17:15.999Z,65.45
2019-02-21T05:22:19.889Z,65.37
2019-02-21T05:27:28.228Z,65.37
2019-02-21T05:32:42.255Z,65.36
2019-02-21T05:38:07.670Z,65.45
2019-02-21T05:43:31.149Z,65.37
2019-02-21T05:49:02.431Z,65.53
2019-02-21T05:54:17.065Z,65.72
2019-02-21T05:59:33.687Z,65.81
2019-02-21T06:04:56.644Z,66.08
2019-02-21T06:10:11.855Z,66.09
2019-02-21T06:15:37.568Z,66.23
2019-02-21T06:21:03.424Z,67.29
2019-02-21T06:26:39.533Z,67.63
2019-02-21T06:31:43.667Z,68.63
2019-02-21T06:36:47.554Z,68.88
2019-02-21T06:41:59.093Z,69.28
2019-02-21T06:46:57.158Z,69.88
2019-02-21T06:52:01.058Z,69.84
2019-02-21T06:57:05.046Z,70.11
2019-02-21T07:02:08.964Z,70.43
2019-02-21T07:07:12.818Z,70.60
2019-02-21T07:12:16.840Z,70.43
2019-02-21T07:17:20.690Z,70.42
2019-02-21T07:22:24.730Z,70.86
2019-02-21T07:27:28.940Z,71.65
2019-02-21T07:32:32.832Z,72.30
2019-02-21T07:37:36.816Z,72.97
2019-02-21T07:42:40.658Z,73.65
2019-02-21T07:47:44.556Z,73.85
2019-02-21T07:52:48.466Z,73.96
2019-02-21T07:57:52.490Z,74.06
2019-02-21T08:02:56.435Z,74.25
2019-02-21T08:08:00.362Z,74.61
2019-02-21T08:13:04.339Z,74.75
2019-02-21T08:18:08.352Z,75.02
2019-02-21T08:23:12.223Z,75.49
2019-02-21T08:28:16.106Z,76.04
2019-02-21T08:33:58.407Z,75.84
2019-02-21T08:38:56.995Z,76.07
2019-02-21T08:44:00.937Z,75.87
2019-02-21T08:49:04.876Z,76.08
2019-02-21T08:54:11.301Z,76.27
2019-02-21T08:59:14.474Z,76.17
2019-02-21T09:04:27.364Z,76.52
2019-02-21T09:09:24.182Z,77.05
2019-02-21T09:14:28.094Z,76.67
2019-02-21T09:19:32.105Z,76.68
2019-02-21T09:24:40.103Z,76.92
2019-02-21T09:29:41.566Z,76.70
2019-02-21T09:34:45.529Z,76.58
2019-02-21T09:39:49.442Z,76.27
2019-02-21T09:44:53.242Z,76.55
2019-02-21T09:49:57.081Z,76.28
2019-02-21T09:55:00.918Z,76.33
2019-02-21T10:00:05.412Z,75.73
2019-02-21T10:05:09.370Z,75.12
2019-02-21T10:10:15.552Z,74.46
2019-02-21T10:15:19.507Z,74.43
2019-02-21T10:20:23.430Z,74.37
2019-02-21T10:25:28.519Z,74.27
2019-02-21T10:30:32.509Z,74.00
2019-02-21T10:35:36.517Z,74.05
2019-02-21T10:40:40.448Z,73.52
2019-02-21T10:45:47.851Z,73.04
2019-02-21T10:50:49.982Z,72.60
2019-02-21T10:55:54.051Z,72.12
2019-02-21T11:00:58.140Z,71.97
2019-02-21T11:06:02.150Z,71.54
2019-02-21T11:11:06.112Z,71.39
2019-02-21T11:16:10.018Z,70.21
2019-02-21T11:21:13.882Z,69.53
2019-02-21T11:26:17.828Z,68.87
2019-02-21T11:31:21.794Z,68.86
2019-02-21T11:36:25.688Z,69.30
2019-02-21T11:41:29.650Z,69.11
2019-02-21T11:46:33.662Z,70.12
2019-02-21T11:51:37.579Z,70.57
2019-02-21T11:56:41.604Z,72.51
2019-02-21T12:01:45.439Z,73.40
2019-02-21T12:06:49.424Z,73.73
2019-02-21T12:11:53.382Z,73.61
2019-02-21T12:16:57.255Z,72.71
2019-02-21T12:22:01.273Z,71.10
2019-02-21T12:27:05.246Z,70.45
2019-02-21T12:32:09.160Z,70.44
2019-02-21T12:37:13.053Z,70.32
2019-02-21T12:42:17.038Z,70.17
2019-02-21T12:47:20.913Z,69.69
2019-02-21T12:52:24.822Z,69.66
2019-02-21T12:57:28.836Z,69.65
2019-02-21T13:02:33.133Z,69.61
2019-02-21T13:07:37.144Z,69.46
2019-02-21T13:12:40.982Z,69.59
2019-02-21T13:17:45.023Z,69.33
2019-02-21T13:22:48.829Z,69.11
2019-02-21T13:27:52.739Z,68.56
2019-02-21T13:32:56.560Z,68.59
2019-02-21T13:38:00.543Z,68.18
2019-02-21T13:43:04.419Z,67.87
2019-02-21T13:48:11.108Z,66.91
2019-02-21T13:53:14.961Z,66.71
2019-02-21T13:58:18.814Z,66.87
2019-02-21T14:03:22.936Z,66.29
2019-02-21T14:08:27.332Z,66.84
2019-02-21T14:13:31.168Z,66.65
2019-02-21T14:18:35.152Z,66.71
2019-02-21T14:23:39.068Z,66.45
2019-02-21T14:28:43.020Z,66.05
2019-02-21T14:33:46.978Z,65.72
2019-02-21T14:38:50.887Z,65.40
2019-02-21T14:43:54.772Z,65.17
2019-02-21T14:48:58.618Z,65.28
2019-02-21T14:54:02.530Z,65.64
2019-02-21T14:59:06.418Z,66.44
2019-02-21T15:04:10.452Z,66.71
2019-02-21T15:09:14.646Z,66.45
2019-02-21T15:14:18.715Z,66.21
2019-02-21T15:19:22.668Z,66.28
2019-02-21T15:24:26.686Z,66.55
2019-02-21T15:29:30.598Z,66.70
2019-02-21T15:34:34.544Z,66.45
2019-02-21T15:39:38.683Z,66.40
2019-02-21T15:44:42.759Z,66.47
2019-02-21T15:49:46.750Z,66.84
2019-02-21T15:54:50.738Z,67.26
2019-02-21T15:59:54.634Z,67.77
2019-02-21T16:04:58.770Z,68.88
2019-02-21T16:10:06.874Z,69.81
2019-02-21T16:15:11.855Z,70.71
2019-02-21T16:20:16.111Z,71.75
2019-02-21T16:25:20.842Z,72.06
2019-02-21T16:30:25.184Z,72.21
2019-02-21T16:35:29.275Z,72.41
2019-02-21T16:40:33.102Z,72.69
2019-02-21T16:45:43.641Z,73.00
2019-02-21T16:50:42.788Z,73.43
2019-02-21T16:55:46.694Z,73.54
2019-02-21T17:00:56.497Z,73.41
2019-02-21T17:05:56.313Z,73.46
2019-02-21T17:11:00.295Z,73.38
2019-02-21T17:16:05.180Z,73.59
2019-02-21T17:21:09.111Z,73.70
2019-02-21T17:26:13.421Z,74.16
2019-02-21T17:31:17.337Z,74.29
2019-02-21T17:36:22.310Z,74.46
2019-02-21T17:41:26.176Z,74.64
2019-02-21T17:46:30.536Z,74.85
2019-02-21T17:51:34.762Z,75.33
2019-02-21T17:56:38.739Z,75.41
2019-02-21T18:01:42.818Z,75.63
2019-02-21T18:06:47.073Z,75.77
2019-02-21T18:11:51.731Z,75.75
2019-02-21T18:16:55.782Z,75.66
2019-02-21T18:21:59.869Z,75.79
